createdAt,value
2022-12-25T00:01:07.272Z,1.00
2022-12-25T00:03:36.094Z,1.00
2022-12-25T00:06:05.430Z,1.00
2022-12-25T00:08:34.650Z,1.00
2022-12-25T00:11:05.430Z,1.00
2022-12-25T00:13:35.638Z,1.00
2022-12-25T00:16:07.877Z,1.00
2022-12-25T00:18:36.829Z,1.00
2022-12-25T00:21:07.875Z,1.00
2022-12-25T00:23:37.090Z,1.00
2022-12-25T00:26:06.784Z,1.00
2022-12-25T00:28:37.145Z,1.00
2022-12-25T00:31:07.426Z,1.00
2022-12-25T00:33:37.611Z,1.00
2022-12-25T00:36:07.691Z,1.00
2022-12-25T00:38:37.955Z,1.00
2022-12-25T00:41:08.823Z,1.00
2022-12-25T00:43:39.662Z,1.00
2022-12-25T00:46:08.862Z,1.00
2022-12-25T00:48:38.341Z,1.00
2022-12-25T00:51:08.639Z,1.00
2022-12-25T00:53:37.395Z,1.00
2022-12-25T00:56:08.294Z,1.00
2022-12-25T00:58:38.344Z,1.00
2022-12-25T01:01:07.137Z,1.00
2022-12-25T01:03:35.822Z,1.00
2022-12-25T01:06:06.886Z,1.00
2022-12-25T01:08:38.819Z,1.00
2022-12-25T01:11:08.099Z,1.00
2022-12-25T01:13:38.866Z,1.00
2022-12-25T01:16:08.009Z,1.00
2022-12-25T01:18:37.199Z,1.00
2022-12-25T01:21:08.245Z,1.00
2022-12-25T01:23:38.802Z,1.00
2022-12-25T01:26:07.992Z,1.00
2022-12-25T01:28:38.703Z,1.00
2022-12-25T01:31:11.696Z,1.00
2022-12-25T01:33:40.676Z,1.00
2022-12-25T01:36:16.066Z,1.00
2022-12-25T01:38:45.526Z,1.00
2022-12-25T01:41:16.641Z,1.00
2022-12-25T01:44:01.540Z,1.00
2022-12-25T01:46:30.831Z,1.00
2022-12-25T01:49:02.559Z,1.00
2022-12-25T01:51:36.715Z,1.00
2022-12-25T01:54:09.916Z,1.00
2022-12-25T01:56:40.334Z,1.00
2022-12-25T01:59:12.014Z,1.00
2022-12-25T02:01:41.175Z,1.00
2022-12-25T02:04:17.916Z,1.00
2022-12-25T02:06:47.109Z,3.50
2022-12-25T02:09:16.600Z,1.00
2022-12-25T02:12:00.566Z,1.00
2022-12-25T02:14:34.426Z,1.00
2022-12-25T02:17:10.703Z,1.00
2022-12-25T02:19:57.867Z,1.00
2022-12-25T02:22:35.969Z,1.00
2022-12-25T02:25:14.691Z,1.00
2022-12-25T02:28:06.747Z,1.00
2022-12-25T02:30:40.362Z,1.00
2022-12-25T02:33:31.193Z,1.00
2022-12-25T02:36:04.401Z,1.00
2022-12-25T02:38:38.145Z,1.00
2022-12-25T02:41:10.747Z,1.00
2022-12-25T02:44:02.219Z,1.00
2022-12-25T02:46:51.233Z,1.00
2022-12-25T02:49:42.103Z,1.00
2022-12-25T02:52:31.347Z,1.00
2022-12-25T02:55:21.648Z,1.00
2022-12-25T02:58:11.216Z,1.00
2022-12-25T03:01:03.279Z,1.00
2022-12-25T03:03:52.538Z,1.00
2022-12-25T03:06:41.135Z,1.00
2022-12-25T03:09:29.200Z,1.00
2022-12-25T03:12:11.221Z,1.00
2022-12-25T03:14:57.919Z,1.00
2022-12-25T03:17:28.311Z,1.00
2022-12-25T03:20:14.441Z,1.00
2022-12-25T03:23:03.089Z,1.00
2022-12-25T03:25:49.226Z,1.00
2022-12-25T03:28:18.236Z,1.00
2022-12-25T03:31:11.025Z,1.00
2022-12-25T03:34:09.519Z,1.00
2022-12-25T03:36:48.813Z,1.00
2022-12-25T03:39:45.332Z,1.00
2022-12-25T03:42:34.627Z,1.00
2022-12-25T03:45:27.734Z,1.00
2022-12-25T03:48:15.342Z,1.00
2022-12-25T03:51:06.769Z,1.00
2022-12-25T03:53:59.278Z,1.00
2022-12-25T03:56:47.080Z,1.00
2022-12-25T03:59:37.001Z,1.00
2022-12-25T04:02:23.434Z,1.00
2022-12-25T04:05:10.013Z,1.00
2022-12-25T04:07:57.466Z,1.00
2022-12-25T04:10:43.755Z,1.00
2022-12-25T04:13:44.406Z,1.00
2022-12-25T04:16:30.276Z,1.00
2022-12-25T04:19:16.368Z,1.00
2022-12-25T04:22:07.667Z,1.00
2022-12-25T04:25:03.413Z,1.00
2022-12-25T04:27:49.513Z,1.00
2022-12-25T04:30:35.849Z,1.00
2022-12-25T04:33:21.801Z,1.00
2022-12-25T04:36:08.250Z,1.00
2022-12-25T04:38:37.457Z,1.00
2022-12-25T04:41:08.197Z,1.00
2022-12-25T04:43:36.860Z,1.00
2022-12-25T04:46:06.931Z,1.00
2022-12-25T04:48:37.197Z,1.00
2022-12-25T04:51:12.834Z,10.60
2022-12-25T04:53:41.622Z,8.70
2022-12-25T04:56:11.701Z,37.30
2022-12-25T04:58:40.450Z,37.10
2022-12-25T05:01:09.431Z,34.60
2022-12-25T05:03:38.337Z,38.50
2022-12-25T05:06:07.943Z,27.20
2022-12-25T05:08:37.610Z,29.80
2022-12-25T05:11:12.188Z,31.60
2022-12-25T05:13:41.153Z,44.50
2022-12-25T05:16:13.071Z,72.60
2022-12-25T05:18:42.004Z,65.90
2022-12-25T05:21:11.723Z,57.70
2022-12-25T05:23:48.667Z,59.00
2022-12-25T05:26:21.384Z,65.80
2022-12-25T05:28:50.643Z,82.00
2022-12-25T05:31:19.996Z,93.30
2022-12-25T05:33:51.706Z,99.90
2022-12-25T05:36:21.039Z,99.90
2022-12-25T05:38:49.676Z,99.90
2022-12-25T05:41:20.100Z,99.90
2022-12-25T05:43:48.781Z,99.90
2022-12-25T05:46:18.046Z,99.90
2022-12-25T05:48:46.762Z,99.90
2022-12-25T05:51:16.075Z,99.90
2022-12-25T05:53:44.781Z,99.90
2022-12-25T05:56:13.407Z,99.90
2022-12-25T05:58:43.507Z,99.90
2022-12-25T06:01:14.004Z,99.90
2022-12-25T06:03:42.802Z,99.90
2022-12-25T06:06:14.768Z,99.90
2022-12-25T06:08:43.692Z,99.90
2022-12-25T06:11:13.623Z,99.90
2022-12-25T06:13:44.198Z,99.90
2022-12-25T06:16:13.960Z,99.90
2022-12-25T06:18:44.981Z,99.90
2022-12-25T06:21:14.759Z,99.90
2022-12-25T06:23:43.696Z,99.90
2022-12-25T06:26:15.186Z,99.90
2022-12-25T06:28:45.762Z,99.90
2022-12-25T06:31:17.274Z,99.90
2022-12-25T06:33:47.630Z,99.90
2022-12-25T06:36:19.595Z,99.90
2022-12-25T06:38:48.531Z,99.90
2022-12-25T06:41:19.367Z,99.90
2022-12-25T06:43:51.806Z,99.90
2022-12-25T06:46:21.305Z,99.90
2022-12-25T06:48:50.372Z,99.90
2022-12-25T06:51:19.510Z,99.90
2022-12-25T06:53:48.781Z,99.90
2022-12-25T06:56:19.519Z,99.90
2022-12-25T06:58:51.647Z,99.90
2022-12-25T07:01:23.138Z,99.90
2022-12-25T07:03:56.601Z,99.90
2022-12-25T07:06:25.330Z,99.90
2022-12-25T07:08:54.065Z,99.90
2022-12-25T07:11:23.261Z,99.90
2022-12-25T07:13:53.233Z,99.90
2022-12-25T07:16:22.012Z,99.90
2022-12-25T07:18:50.765Z,99.90
2022-12-25T07:21:21.839Z,99.90
2022-12-25T07:23:51.788Z,99.90
2022-12-25T07:26:21.064Z,99.90
2022-12-25T07:28:49.721Z,99.90
2022-12-25T07:31:20.122Z,99.90
2022-12-25T07:33:49.342Z,99.90
2022-12-25T07:36:18.126Z,99.90
2022-12-25T07:38:50.373Z,99.90
2022-12-25T07:41:19.326Z,99.90
2022-12-25T07:43:51.201Z,99.90
2022-12-25T07:46:21.678Z,99.90
2022-12-25T07:48:50.527Z,99.90
2022-12-25T07:51:19.127Z,99.90
2022-12-25T07:53:47.948Z,99.90
2022-12-25T07:56:18.149Z,99.90
2022-12-25T07:58:47.100Z,99.90
2022-12-25T08:01:18.252Z,99.90
2022-12-25T08:03:52.009Z,99.90
2022-12-25T08:06:22.131Z,99.90
2022-12-25T08:08:50.791Z,99.90
2022-12-25T08:11:19.483Z,99.90
2022-12-25T08:13:48.189Z,99.90
2022-12-25T08:16:16.939Z,99.90
2022-12-25T08:18:45.594Z,99.90
2022-12-25T08:21:17.008Z,99.90
2022-12-25T08:23:47.733Z,99.90
2022-12-25T08:26:18.095Z,99.90
2022-12-25T08:28:46.830Z,99.90
2022-12-25T08:31:17.998Z,99.90
2022-12-25T08:33:48.054Z,99.90
2022-12-25T08:36:19.016Z,99.90
2022-12-25T08:38:48.078Z,99.90
2022-12-25T08:41:17.739Z,99.90
2022-12-25T08:43:46.732Z,99.90
2022-12-25T08:46:16.102Z,99.90
2022-12-25T08:48:46.303Z,99.90
2022-12-25T08:51:17.823Z,99.90
2022-12-25T08:53:47.991Z,99.90
2022-12-25T08:56:17.337Z,99.90
2022-12-25T08:58:46.301Z,99.90
2022-12-25T09:01:16.936Z,99.90
2022-12-25T09:03:45.885Z,96.90
2022-12-25T09:06:16.094Z,77.50
2022-12-25T09:08:49.620Z,68.30
2022-12-25T09:11:20.569Z,19.50
2022-12-25T09:13:49.754Z,13.60
2022-12-25T09:16:21.400Z,22.70
2022-12-25T09:18:50.917Z,3.90
2022-12-25T09:21:20.060Z,7.50
2022-12-25T09:23:50.092Z,1.00
2022-12-25T09:26:20.216Z,1.00
2022-12-25T09:28:52.214Z,1.00
2022-12-25T09:31:22.107Z,1.00
2022-12-25T09:33:51.002Z,1.00
2022-12-25T09:36:21.563Z,1.00
2022-12-25T09:38:51.947Z,1.00
2022-12-25T09:41:27.714Z,1.00
2022-12-25T09:44:01.953Z,1.00
2022-12-25T09:46:37.373Z,1.00
2022-12-25T09:49:13.106Z,1.00
2022-12-25T09:51:44.580Z,1.00
2022-12-25T09:54:20.986Z,1.00
2022-12-25T09:56:49.662Z,1.00
2022-12-25T09:59:24.647Z,1.00
2022-12-25T10:02:12.377Z,1.00
2022-12-25T10:05:00.142Z,1.00
2022-12-25T10:07:37.100Z,1.00
2022-12-25T10:10:23.437Z,1.00
2022-12-25T10:12:57.025Z,1.00
2022-12-25T10:15:39.218Z,1.00
2022-12-25T10:18:37.828Z,1.00
2022-12-25T10:21:13.235Z,1.00
2022-12-25T10:23:44.461Z,1.00
2022-12-25T10:26:18.648Z,1.00
2022-12-25T10:28:52.583Z,1.00
2022-12-25T10:31:24.035Z,1.00
2022-12-25T10:33:54.039Z,1.00
2022-12-25T10:36:24.921Z,1.00
2022-12-25T10:38:54.990Z,1.00
2022-12-25T10:41:37.179Z,1.00
2022-12-25T10:44:14.901Z,1.00
2022-12-25T10:46:49.189Z,1.00
2022-12-25T10:49:20.834Z,1.00
2022-12-25T10:51:49.969Z,1.00
2022-12-25T10:54:24.309Z,1.00
2022-12-25T10:57:02.607Z,1.00
2022-12-25T10:59:36.456Z,1.00
2022-12-25T11:02:26.528Z,1.00
2022-12-25T11:05:03.764Z,1.00
2022-12-25T11:07:33.751Z,1.00
2022-12-25T11:10:24.815Z,1.00
2022-12-25T11:12:55.717Z,1.00
2022-12-25T11:15:38.752Z,1.00
2022-12-25T11:18:20.984Z,1.00
2022-12-25T11:20:51.340Z,1.00
2022-12-25T11:23:21.666Z,1.00
2022-12-25T11:25:57.815Z,1.00
2022-12-25T11:28:29.779Z,1.00
2022-12-25T11:31:01.838Z,1.00
2022-12-25T11:33:36.775Z,1.00
2022-12-25T11:36:14.066Z,1.00
2022-12-25T11:38:43.307Z,1.00
2022-12-25T11:41:13.948Z,1.00
2022-12-25T11:43:50.936Z,1.00
2022-12-25T11:46:25.713Z,1.00
2022-12-25T11:49:00.706Z,1.00
2022-12-25T11:51:34.348Z,1.00
2022-12-25T11:54:15.942Z,1.00
2022-12-25T11:56:45.161Z,1.00
2022-12-25T11:59:23.037Z,1.00
2022-12-25T12:01:56.432Z,1.00
2022-12-25T12:04:31.752Z,1.00
2022-12-25T12:07:06.068Z,1.00
2022-12-25T12:09:45.597Z,1.00
2022-12-25T12:12:20.840Z,1.00
2022-12-25T12:14:57.010Z,1.00
2022-12-25T12:17:25.675Z,1.00
2022-12-25T12:19:54.710Z,1.00
2022-12-25T12:22:26.233Z,1.00
2022-12-25T12:25:01.590Z,1.00
2022-12-25T12:27:37.983Z,1.00
2022-12-25T12:30:23.401Z,1.00
2022-12-25T12:32:53.947Z,1.00
2022-12-25T12:35:25.758Z,1.00
2022-12-25T12:37:58.770Z,1.00
2022-12-25T12:40:34.815Z,1.00
2022-12-25T12:43:04.955Z,1.00
2022-12-25T12:45:37.803Z,1.00
2022-12-25T12:48:16.504Z,1.00
2022-12-25T12:50:45.277Z,1.00
2022-12-25T12:53:30.846Z,1.00
2022-12-25T12:56:12.624Z,1.00
2022-12-25T12:58:48.602Z,1.00
2022-12-25T13:01:41.102Z,1.00
2022-12-25T13:04:33.577Z,1.00
2022-12-25T13:07:12.140Z,1.00
2022-12-25T13:09:56.944Z,1.00
2022-12-25T13:12:26.348Z,1.00
2022-12-25T13:14:55.176Z,1.00
2022-12-25T13:17:27.092Z,1.00
2022-12-25T13:19:58.635Z,1.00
2022-12-25T13:22:31.889Z,1.00
2022-12-25T13:25:03.167Z,1.00
2022-12-25T13:27:35.083Z,1.00
2022-12-25T13:30:14.785Z,1.00
2022-12-25T13:32:46.040Z,1.00
2022-12-25T13:35:16.743Z,1.00
2022-12-25T13:37:46.497Z,1.00
2022-12-25T13:40:23.153Z,1.00
2022-12-25T13:42:52.700Z,1.00
2022-12-25T13:45:24.386Z,1.00
2022-12-25T13:47:55.963Z,1.00
2022-12-25T13:50:27.708Z,1.00
2022-12-25T13:52:58.095Z,1.00
2022-12-25T13:55:28.257Z,1.00
2022-12-25T13:58:02.081Z,1.00
2022-12-25T14:00:36.487Z,1.00
2022-12-25T14:03:07.637Z,1.00
2022-12-25T14:05:43.441Z,1.00
2022-12-25T14:08:16.827Z,1.00
2022-12-25T14:10:49.593Z,1.00
2022-12-25T14:13:21.228Z,1.00
2022-12-25T14:15:51.455Z,1.00
2022-12-25T14:18:23.093Z,1.00
2022-12-25T14:21:00.989Z,1.00
2022-12-25T14:23:35.479Z,1.00
2022-12-25T14:26:04.687Z,1.00
2022-12-25T14:28:34.617Z,1.00
2022-12-25T14:31:05.072Z,1.00
2022-12-25T14:33:40.491Z,1.00
2022-12-25T14:36:12.340Z,1.00
2022-12-25T14:39:02.624Z,1.00
2022-12-25T14:41:38.082Z,1.00
2022-12-25T14:44:26.622Z,1.00
2022-12-25T14:47:16.498Z,1.00
2022-12-25T14:49:47.035Z,1.00
2022-12-25T14:52:21.812Z,1.00
2022-12-25T14:54:53.137Z,1.00
2022-12-25T14:57:29.362Z,1.00
2022-12-25T15:00:04.183Z,1.00
2022-12-25T15:02:59.966Z,1.00
2022-12-25T15:05:38.446Z,1.00
2022-12-25T15:08:25.362Z,1.00
2022-12-25T15:11:00.431Z,1.00
2022-12-25T15:13:31.244Z,1.00
2022-12-25T15:16:04.820Z,1.00
2022-12-25T15:18:38.811Z,1.00
2022-12-25T15:21:15.446Z,1.00
2022-12-25T15:23:46.189Z,1.00
2022-12-25T15:26:15.811Z,1.00
2022-12-25T15:28:44.845Z,1.00
2022-12-25T15:31:23.069Z,1.00
2022-12-25T15:33:51.993Z,1.00
2022-12-25T15:36:22.264Z,1.00
2022-12-25T15:38:52.736Z,1.00
2022-12-25T15:41:42.673Z,1.00
2022-12-25T15:44:14.020Z,1.00
2022-12-25T15:46:43.252Z,1.00
2022-12-25T15:49:17.000Z,1.00
2022-12-25T15:51:47.491Z,1.00
2022-12-25T15:54:16.570Z,1.00
2022-12-25T15:56:47.773Z,1.00
2022-12-25T15:59:19.475Z,1.00
2022-12-25T16:01:50.356Z,1.00
2022-12-25T16:04:19.154Z,1.00
2022-12-25T16:06:49.410Z,1.00
2022-12-25T16:09:20.184Z,1.00
2022-12-25T16:11:49.879Z,1.00
2022-12-25T16:14:19.672Z,1.00
2022-12-25T16:16:48.615Z,1.00
2022-12-25T16:19:17.224Z,1.00
2022-12-25T16:21:48.446Z,1.00
2022-12-25T16:24:19.300Z,1.00
2022-12-25T16:26:48.196Z,1.00
2022-12-25T16:29:16.922Z,1.00
2022-12-25T16:31:45.658Z,1.00
2022-12-25T16:34:14.609Z,1.00
2022-12-25T16:36:43.396Z,1.00
2022-12-25T16:39:13.418Z,1.00
2022-12-25T16:41:42.095Z,1.00
2022-12-25T16:44:11.295Z,1.00
2022-12-25T16:46:41.630Z,1.00
2022-12-25T16:49:10.789Z,1.00
2022-12-25T16:51:39.408Z,1.00
2022-12-25T16:54:09.249Z,1.00
2022-12-25T16:56:39.227Z,1.00
2022-12-25T16:59:08.245Z,1.00
2022-12-25T17:01:38.137Z,1.00
2022-12-25T17:04:06.983Z,1.00
2022-12-25T17:06:37.486Z,1.00
2022-12-25T17:09:06.330Z,1.00
2022-12-25T17:11:35.066Z,1.00
2022-12-25T17:14:06.348Z,1.00
2022-12-25T17:16:40.069Z,1.00
2022-12-25T17:19:16.362Z,1.00
2022-12-25T17:21:45.023Z,1.00
2022-12-25T17:24:14.077Z,1.00
2022-12-25T17:26:43.978Z,1.00
2022-12-25T17:29:21.413Z,1.00
2022-12-25T17:31:51.208Z,1.00
2022-12-25T17:34:20.436Z,1.00
2022-12-25T17:36:49.401Z,1.00
2022-12-25T17:39:19.198Z,1.00
2022-12-25T17:41:49.932Z,1.00
2022-12-25T17:44:21.176Z,1.00
2022-12-25T17:46:51.418Z,1.00
2022-12-25T17:49:22.749Z,1.00
2022-12-25T17:51:51.429Z,1.00
2022-12-25T17:54:20.123Z,1.00
2022-12-25T17:56:49.565Z,1.00
2022-12-25T17:59:20.627Z,1.00
2022-12-25T18:01:49.462Z,1.00
2022-12-25T18:04:18.170Z,1.00
2022-12-25T18:06:47.388Z,1.00
2022-12-25T18:09:16.188Z,1.00
2022-12-25T18:11:45.163Z,1.00
2022-12-25T18:14:16.675Z,1.00
2022-12-25T18:16:47.252Z,1.00
2022-12-25T18:19:18.559Z,1.00
2022-12-25T18:21:47.285Z,1.00
2022-12-25T18:24:16.322Z,1.00
2022-12-25T18:26:45.857Z,1.00
2022-12-25T18:29:14.746Z,1.00
2022-12-25T18:31:44.521Z,1.00
2022-12-25T18:34:14.807Z,1.00
2022-12-25T18:36:44.711Z,1.00
2022-12-25T18:39:14.477Z,1.00
2022-12-25T18:41:57.034Z,1.00
2022-12-25T18:44:25.759Z,1.00
2022-12-25T18:46:54.793Z,1.00
2022-12-25T18:49:24.838Z,1.00
2022-12-25T18:51:53.519Z,1.00
2022-12-25T18:54:42.191Z,1.00
2022-12-25T18:57:10.834Z,1.00
2022-12-25T18:59:39.609Z,1.00
2022-12-25T19:02:08.409Z,1.00
2022-12-25T19:04:39.094Z,1.00
2022-12-25T19:07:07.913Z,1.00
2022-12-25T19:09:36.802Z,1.00
2022-12-25T19:12:05.984Z,1.00
2022-12-25T19:14:47.330Z,1.00
2022-12-25T19:17:17.081Z,1.00
2022-12-25T19:19:47.556Z,1.00
2022-12-25T19:22:17.135Z,1.00
2022-12-25T19:24:45.959Z,1.00
2022-12-25T19:27:14.632Z,1.00
2022-12-25T19:29:45.813Z,1.00
2022-12-25T19:32:14.480Z,1.00
2022-12-25T19:34:43.173Z,1.00
2022-12-25T19:37:13.197Z,1.00
2022-12-25T19:39:46.876Z,1.00
2022-12-25T19:42:18.942Z,1.00
2022-12-25T19:44:48.647Z,1.00
2022-12-25T19:47:17.352Z,1.00
2022-12-25T19:49:50.963Z,1.00
2022-12-25T19:52:23.423Z,1.00
2022-12-25T19:54:52.643Z,1.00
2022-12-25T19:57:21.517Z,1.00
2022-12-25T19:59:50.837Z,1.00
2022-12-25T20:02:19.645Z,1.00
2022-12-25T20:04:48.539Z,1.00
2022-12-25T20:07:17.250Z,1.00
2022-12-25T20:09:47.477Z,1.00
2022-12-25T20:12:16.506Z,1.00
2022-12-25T20:14:45.169Z,1.00
2022-12-25T20:17:15.972Z,1.00
2022-12-25T20:19:45.072Z,1.00
2022-12-25T20:22:13.660Z,1.00
2022-12-25T20:24:42.268Z,1.00
2022-12-25T20:27:12.317Z,1.00
2022-12-25T20:29:40.981Z,1.00
2022-12-25T20:32:09.982Z,1.00
2022-12-25T20:34:38.737Z,1.00
2022-12-25T20:37:07.590Z,1.00
2022-12-25T20:39:36.272Z,1.00
2022-12-25T20:42:05.588Z,1.00
2022-12-25T20:44:35.700Z,1.00
2022-12-25T20:47:04.509Z,1.00
2022-12-25T20:49:34.854Z,1.00
2022-12-25T20:52:05.891Z,1.00
2022-12-25T20:54:35.666Z,1.00
2022-12-25T20:57:04.373Z,1.00
2022-12-25T20:59:37.383Z,1.00
2022-12-25T21:02:08.393Z,1.00
2022-12-25T21:04:56.938Z,1.00
2022-12-25T21:07:25.620Z,1.00
2022-12-25T21:09:54.332Z,1.00
2022-12-25T21:12:22.948Z,1.00
2022-12-25T21:14:51.724Z,1.00
2022-12-25T21:17:21.937Z,1.00
2022-12-25T21:19:51.327Z,1.00
2022-12-25T21:22:20.018Z,1.00
2022-12-25T21:24:52.092Z,1.00
2022-12-25T21:27:20.700Z,1.00
2022-12-25T21:29:49.284Z,1.00
2022-12-25T21:32:35.414Z,1.00
2022-12-25T21:35:05.918Z,1.00
2022-12-25T21:37:34.657Z,1.00
2022-12-25T21:40:03.287Z,1.00
2022-12-25T21:42:32.233Z,1.00
2022-12-25T21:45:00.866Z,1.00
2022-12-25T21:48:01.929Z,1.00
2022-12-25T21:50:39.383Z,1.00
2022-12-25T21:53:08.736Z,1.00
2022-12-25T21:55:37.361Z,1.00
2022-12-25T21:58:06.023Z,1.00
2022-12-25T22:00:34.812Z,1.00
2022-12-25T22:03:03.645Z,1.00
2022-12-25T22:05:51.478Z,1.00
2022-12-25T22:08:20.077Z,1.00
2022-12-25T22:10:48.712Z,1.00
2022-12-25T22:13:34.846Z,1.00
2022-12-25T22:16:24.500Z,1.00
2022-12-25T22:19:10.542Z,1.00
2022-12-25T22:21:41.641Z,1.00
2022-12-25T22:24:10.963Z,1.00
2022-12-25T22:26:39.649Z,1.00
2022-12-25T22:29:08.328Z,1.00
2022-12-25T22:31:40.827Z,1.00
2022-12-25T22:34:16.863Z,1.00
2022-12-25T22:36:46.921Z,1.00
2022-12-25T22:39:15.826Z,1.00
2022-12-25T22:41:44.542Z,1.00
2022-12-25T22:44:17.802Z,1.00
2022-12-25T22:46:46.859Z,1.00
2022-12-25T22:49:16.678Z,1.00
2022-12-25T22:51:48.168Z,1.00
2022-12-25T22:54:18.437Z,1.00
2022-12-25T22:56:48.981Z,1.00
2022-12-25T22:59:19.124Z,1.00
2022-12-25T23:01:48.088Z,1.00
2022-12-25T23:04:17.091Z,1.00
2022-12-25T23:06:47.328Z,1.00
2022-12-25T23:09:24.130Z,1.00
2022-12-25T23:11:53.527Z,1.00
2022-12-25T23:14:39.754Z,1.00
2022-12-25T23:17:30.929Z,1.00
2022-12-25T23:20:18.351Z,1.00
2022-12-25T23:23:06.133Z,1.00
2022-12-25T23:25:53.708Z,1.00
2022-12-25T23:28:37.592Z,1.00
2022-12-25T23:31:06.535Z,1.00
2022-12-25T23:33:35.312Z,1.00
2022-12-25T23:36:04.070Z,1.00
2022-12-25T23:38:34.224Z,1.00
2022-12-25T23:41:02.868Z,1.00
2022-12-25T23:43:31.808Z,1.00
2022-12-25T23:46:00.473Z,1.00
2022-12-25T23:48:29.245Z,1.00
2022-12-25T23:50:57.867Z,1.00
2022-12-25T23:53:26.472Z,1.00
2022-12-25T23:55:57.688Z,1.00
2022-12-25T23:58:26.832Z,1.00
